sensor_id;sensor_type;location;lat;lon;timestamp;temperature;humidity
15386;DHT22;7791;47.246;9.648;2022-08-19T00:01:24;17.40;99.90
15386;DHT22;7791;47.246;9.648;2022-08-19T00:03:56;17.40;99.90
15386;DHT22;7791;47.246;9.648;2022-08-19T00:06:24;17.40;99.90
15386;DHT22;7791;47.246;9.648;2022-08-19T00:08:50;17.50;99.90
15386;DHT22;7791;47.246;9.648;2022-08-19T00:11:16;17.60;99.90
15386;DHT22;7791;47.246;9.648;2022-08-19T00:13:43;17.70;99.90
15386;DHT22;7791;47.246;9.648;2022-08-19T00:16:09;17.70;99.90
15386;DHT22;7791;47.246;9.648;2022-08-19T00:18:37;17.80;99.90
15386;DHT22;7791;47.246;9.648;2022-08-19T00:21:12;17.80;99.90
15386;DHT22;7791;47.246;9.648;2022-08-19T00:23:42;17.70;99.90
15386;DHT22;7791;47.246;9.648;2022-08-19T00:26:09;17.80;99.90
15386;DHT22;7791;47.246;9.648;2022-08-19T00:28:35;17.90;99.90
15386;DHT22;7791;47.246;9.648;2022-08-19T00:31:02;17.90;99.90
15386;DHT22;7791;47.246;9.648;2022-08-19T00:33:29;17.90;99.90
15386;DHT22;7791;47.246;9.648;2022-08-19T00:35:56;17.90;99.90
15386;DHT22;7791;47.246;9.648;2022-08-19T00:38:22;17.50;99.90
15386;DHT22;7791;47.246;9.648;2022-08-19T00:40:57;17.50;99.90
15386;DHT22;7791;47.246;9.648;2022-08-19T00:43:24;17.70;99.90
15386;DHT22;7791;47.246;9.648;2022-08-19T00:45:51;17.80;99.90
15386;DHT22;7791;47.246;9.648;2022-08-19T00:48:19;17.80;99.90
15386;DHT22;7791;47.246;9.648;2022-08-19T00:50:47;17.60;99.90
15386;DHT22;7791;47.246;9.648;2022-08-19T00:53:17;17.50;99.90
15386;DHT22;7791;47.246;9.648;2022-08-19T00:55:46;17.40;99.90
15386;DHT22;7791;47.246;9.648;2022-08-19T00:58:16;17.40;99.90
15386;DHT22;7791;47.246;9.648;2022-08-19T01:00:44;17.50;99.90
15386;DHT22;7791;47.246;9.648;2022-08-19T01:03:12;17.50;99.90
15386;DHT22;7791;47.246;9.648;2022-08-19T01:05:41;17.60;99.90
15386;DHT22;7791;47.246;9.648;2022-08-19T01:08:08;17.70;99.90
15386;DHT22;7791;47.246;9.648;2022-08-19T01:10:42;17.70;99.90
15386;DHT22;7791;47.246;9.648;2022-08-19T01:13:09;17.70;99.90
15386;DHT22;7791;47.246;9.648;2022-08-19T01:15:41;17.70;99.90
15386;DHT22;7791;47.246;9.648;2022-08-19T01:18:13;17.60;99.90
15386;DHT22;7791;47.246;9.648;2022-08-19T01:20:41;17.30;99.90
15386;DHT22;7791;47.246;9.648;2022-08-19T01:23:13;17.50;99.90
15386;DHT22;7791;47.246;9.648;2022-08-19T01:25:44;17.60;99.90
15386;DHT22;7791;47.246;9.648;2022-08-19T01:28:16;17.70;99.90
15386;DHT22;7791;47.246;9.648;2022-08-19T01:30:46;17.70;99.90
15386;DHT22;7791;47.246;9.648;2022-08-19T01:33:14;17.70;99.90
15386;DHT22;7791;47.246;9.648;2022-08-19T01:35:41;17.70;99.90
15386;DHT22;7791;47.246;9.648;2022-08-19T01:38:18;17.80;99.90
15386;DHT22;7791;47.246;9.648;2022-08-19T01:40:44;17.80;99.90
15386;DHT22;7791;47.246;9.648;2022-08-19T01:43:11;17.90;99.90
15386;DHT22;7791;47.246;9.648;2022-08-19T01:45:37;17.90;99.90
15386;DHT22;7791;47.246;9.648;2022-08-19T01:48:04;17.80;99.90
15386;DHT22;7791;47.246;9.648;2022-08-19T01:50:32;17.90;99.90
15386;DHT22;7791;47.246;9.648;2022-08-19T01:53:14;17.90;99.90
15386;DHT22;7791;47.246;9.648;2022-08-19T01:55:42;17.90;99.90
15386;DHT22;7791;47.246;9.648;2022-08-19T01:58:14;17.90;99.90
15386;DHT22;7791;47.246;9.648;2022-08-19T02:00:42;17.80;99.90
15386;DHT22;7791;47.246;9.648;2022-08-19T02:03:08;17.80;99.90
15386;DHT22;7791;47.246;9.648;2022-08-19T02:05:35;17.80;99.90
15386;DHT22;7791;47.246;9.648;2022-08-19T02:08:01;17.90;99.90
15386;DHT22;7791;47.246;9.648;2022-08-19T02:10:29;18.00;99.90
15386;DHT22;7791;47.246;9.648;2022-08-19T02:12:55;18.00;99.90
15386;DHT22;7791;47.246;9.648;2022-08-19T02:15:21;17.90;99.90
15386;DHT22;7791;47.246;9.648;2022-08-19T02:17:49;17.90;99.90
15386;DHT22;7791;47.246;9.648;2022-08-19T02:20:16;17.70;99.90
15386;DHT22;7791;47.246;9.648;2022-08-19T02:22:44;17.60;99.90
15386;DHT22;7791;47.246;9.648;2022-08-19T02:25:10;17.50;99.90
15386;DHT22;7791;47.246;9.648;2022-08-19T02:27:39;17.60;99.90
15386;DHT22;7791;47.246;9.648;2022-08-19T02:30:07;17.70;99.90
15386;DHT22;7791;47.246;9.648;2022-08-19T02:32:34;17.80;99.90
15386;DHT22;7791;47.246;9.648;2022-08-19T02:35:07;17.90;99.90
15386;DHT22;7791;47.246;9.648;2022-08-19T02:37:35;18.00;99.90
15386;DHT22;7791;47.246;9.648;2022-08-19T02:40:01;18.10;99.90
15386;DHT22;7791;47.246;9.648;2022-08-19T02:42:28;18.10;99.90
15386;DHT22;7791;47.246;9.648;2022-08-19T02:44:56;18.10;99.90
15386;DHT22;7791;47.246;9.648;2022-08-19T02:47:23;18.10;99.90
15386;DHT22;7791;47.246;9.648;2022-08-19T02:49:49;18.10;99.90
15386;DHT22;7791;47.246;9.648;2022-08-19T02:52:15;17.90;99.90
15386;DHT22;7791;47.246;9.648;2022-08-19T02:57:44;17.80;99.90
15386;DHT22;7791;47.246;9.648;2022-08-19T03:00:13;17.70;99.90
15386;DHT22;7791;47.246;9.648;2022-08-19T03:02:39;17.80;99.90
15386;DHT22;7791;47.246;9.648;2022-08-19T03:05:08;18.00;99.90
15386;DHT22;7791;47.246;9.648;2022-08-19T03:07:34;18.00;99.90
15386;DHT22;7791;47.246;9.648;2022-08-19T03:10:01;18.10;99.90
15386;DHT22;7791;47.246;9.648;2022-08-19T03:12:30;18.20;99.90
15386;DHT22;7791;47.246;9.648;2022-08-19T03:14:56;18.20;99.90
15386;DHT22;7791;47.246;9.648;2022-08-19T03:17:24;18.20;99.90
15386;DHT22;7791;47.246;9.648;2022-08-19T03:19:50;18.20;99.90
15386;DHT22;7791;47.246;9.648;2022-08-19T03:22:19;18.20;99.90
15386;DHT22;7791;47.246;9.648;2022-08-19T03:24:46;18.30;99.90
15386;DHT22;7791;47.246;9.648;2022-08-19T03:27:12;18.30;99.90
15386;DHT22;7791;47.246;9.648;2022-08-19T03:29:41;18.30;99.90
15386;DHT22;7791;47.246;9.648;2022-08-19T03:32:07;18.30;99.90
15386;DHT22;7791;47.246;9.648;2022-08-19T03:34:37;18.30;99.90
15386;DHT22;7791;47.246;9.648;2022-08-19T03:37:10;18.30;99.90
15386;DHT22;7791;47.246;9.648;2022-08-19T03:39:43;18.30;99.90
15386;DHT22;7791;47.246;9.648;2022-08-19T03:42:09;18.30;99.90
15386;DHT22;7791;47.246;9.648;2022-08-19T03:44:45;18.30;99.90
15386;DHT22;7791;47.246;9.648;2022-08-19T03:47:12;18.30;99.90
15386;DHT22;7791;47.246;9.648;2022-08-19T03:49:48;18.30;99.90
15386;DHT22;7791;47.246;9.648;2022-08-19T03:52:17;18.30;99.90
15386;DHT22;7791;47.246;9.648;2022-08-19T03:54:43;18.30;99.90
15386;DHT22;7791;47.246;9.648;2022-08-19T03:57:10;18.30;99.90
15386;DHT22;7791;47.246;9.648;2022-08-19T03:59:38;18.30;99.90
15386;DHT22;7791;47.246;9.648;2022-08-19T04:02:08;18.20;99.90
15386;DHT22;7791;47.246;9.648;2022-08-19T04:04:36;18.20;99.90
15386;DHT22;7791;47.246;9.648;2022-08-19T04:07:06;18.10;99.90
15386;DHT22;7791;47.246;9.648;2022-08-19T04:09:33;18.10;99.90
15386;DHT22;7791;47.246;9.648;2022-08-19T04:11:59;18.20;99.90
15386;DHT22;7791;47.246;9.648;2022-08-19T04:14:30;18.10;99.90
15386;DHT22;7791;47.246;9.648;2022-08-19T04:16:57;18.10;99.90
15386;DHT22;7791;47.246;9.648;2022-08-19T04:19:25;17.80;99.90
15386;DHT22;7791;47.246;9.648;2022-08-19T04:21:53;17.80;99.90
15386;DHT22;7791;47.246;9.648;2022-08-19T04:24:23;17.90;99.90
15386;DHT22;7791;47.246;9.648;2022-08-19T04:26:50;18.00;99.90
15386;DHT22;7791;47.246;9.648;2022-08-19T04:29:21;18.10;99.90
15386;DHT22;7791;47.246;9.648;2022-08-19T04:31:50;18.10;99.90
15386;DHT22;7791;47.246;9.648;2022-08-19T04:34:18;18.10;99.90
15386;DHT22;7791;47.246;9.648;2022-08-19T04:36:45;18.00;99.90
15386;DHT22;7791;47.246;9.648;2022-08-19T04:39:14;18.00;99.90
15386;DHT22;7791;47.246;9.648;2022-08-19T04:41:47;18.20;99.90
15386;DHT22;7791;47.246;9.648;2022-08-19T04:44:14;18.20;99.90
15386;DHT22;7791;47.246;9.648;2022-08-19T04:46:40;18.30;99.90
15386;DHT22;7791;47.246;9.648;2022-08-19T04:49:08;18.30;99.90
15386;DHT22;7791;47.246;9.648;2022-08-19T04:51:40;18.40;99.90
15386;DHT22;7791;47.246;9.648;2022-08-19T04:54:12;18.40;99.90
15386;DHT22;7791;47.246;9.648;2022-08-19T04:56:44;18.40;99.90
15386;DHT22;7791;47.246;9.648;2022-08-19T04:59:12;18.40;99.90
15386;DHT22;7791;47.246;9.648;2022-08-19T05:01:38;18.40;99.90
15386;DHT22;7791;47.246;9.648;2022-08-19T05:04:07;18.40;99.90
15386;DHT22;7791;47.246;9.648;2022-08-19T05:06:33;18.50;99.90
15386;DHT22;7791;47.246;9.648;2022-08-19T05:08:59;18.50;99.90
15386;DHT22;7791;47.246;9.648;2022-08-19T05:11:28;18.50;99.90
15386;DHT22;7791;47.246;9.648;2022-08-19T05:14:02;18.50;99.90
15386;DHT22;7791;47.246;9.648;2022-08-19T05:16:35;18.50;99.90
15386;DHT22;7791;47.246;9.648;2022-08-19T05:19:01;18.60;99.90
15386;DHT22;7791;47.246;9.648;2022-08-19T05:21:30;18.60;99.90
15386;DHT22;7791;47.246;9.648;2022-08-19T05:23:57;18.60;99.90
15386;DHT22;7791;47.246;9.648;2022-08-19T05:26:27;18.50;99.90
15386;DHT22;7791;47.246;9.648;2022-08-19T05:28:57;18.50;99.90
15386;DHT22;7791;47.246;9.648;2022-08-19T05:31:38;18.30;99.90
15386;DHT22;7791;47.246;9.648;2022-08-19T05:34:09;18.20;99.90
15386;DHT22;7791;47.246;9.648;2022-08-19T05:36:39;18.10;99.90
15386;DHT22;7791;47.246;9.648;2022-08-19T05:39:13;18.10;99.90
15386;DHT22;7791;47.246;9.648;2022-08-19T05:41:41;18.30;99.90
15386;DHT22;7791;47.246;9.648;2022-08-19T05:44:14;18.40;99.90
15386;DHT22;7791;47.246;9.648;2022-08-19T05:46:53;18.60;99.90
15386;DHT22;7791;47.246;9.648;2022-08-19T05:49:21;18.60;99.90
15386;DHT22;7791;47.246;9.648;2022-08-19T05:51:49;18.60;99.90
15386;DHT22;7791;47.246;9.648;2022-08-19T05:54:15;18.60;99.90
15386;DHT22;7791;47.246;9.648;2022-08-19T05:56:43;18.60;99.90
15386;DHT22;7791;47.246;9.648;2022-08-19T05:59:13;18.60;99.90
15386;DHT22;7791;47.246;9.648;2022-08-19T06:01:42;18.60;99.90
15386;DHT22;7791;47.246;9.648;2022-08-19T06:04:11;18.50;99.90
15386;DHT22;7791;47.246;9.648;2022-08-19T06:06:39;18.60;99.90
15386;DHT22;7791;47.246;9.648;2022-08-19T06:09:06;18.60;99.90
15386;DHT22;7791;47.246;9.648;2022-08-19T06:11:36;18.60;99.90
15386;DHT22;7791;47.246;9.648;2022-08-19T06:14:06;18.70;99.90
15386;DHT22;7791;47.246;9.648;2022-08-19T06:16:41;18.70;99.90
15386;DHT22;7791;47.246;9.648;2022-08-19T06:19:12;18.80;99.90
15386;DHT22;7791;47.246;9.648;2022-08-19T06:21:40;18.90;99.90
15386;DHT22;7791;47.246;9.648;2022-08-19T06:24:10;19.00;99.90
15386;DHT22;7791;47.246;9.648;2022-08-19T06:26:41;19.00;99.90
15386;DHT22;7791;47.246;9.648;2022-08-19T06:29:09;18.90;99.90
15386;DHT22;7791;47.246;9.648;2022-08-19T06:31:36;18.90;99.90
15386;DHT22;7791;47.246;9.648;2022-08-19T06:34:08;19.00;99.90
15386;DHT22;7791;47.246;9.648;2022-08-19T06:36:40;19.00;99.90
15386;DHT22;7791;47.246;9.648;2022-08-19T06:39:08;18.90;99.90
15386;DHT22;7791;47.246;9.648;2022-08-19T06:41:53;18.70;99.90
15386;DHT22;7791;47.246;9.648;2022-08-19T06:47:22;18.30;99.90
15386;DHT22;7791;47.246;9.648;2022-08-19T06:49:49;18.30;99.90
15386;DHT22;7791;47.246;9.648;2022-08-19T06:52:16;18.30;99.90
15386;DHT22;7791;47.246;9.648;2022-08-19T06:54:42;18.20;99.90
15386;DHT22;7791;47.246;9.648;2022-08-19T06:57:08;18.20;99.90
15386;DHT22;7791;47.246;9.648;2022-08-19T06:59:34;18.30;99.90
15386;DHT22;7791;47.246;9.648;2022-08-19T07:02:03;18.20;99.90
15386;DHT22;7791;47.246;9.648;2022-08-19T07:04:31;18.20;99.90
15386;DHT22;7791;47.246;9.648;2022-08-19T07:06:58;18.10;99.90
15386;DHT22;7791;47.246;9.648;2022-08-19T07:09:26;18.10;99.90
15386;DHT22;7791;47.246;9.648;2022-08-19T07:11:53;17.90;99.90
15386;DHT22;7791;47.246;9.648;2022-08-19T07:14:38;17.90;99.90
15386;DHT22;7791;47.246;9.648;2022-08-19T07:17:05;18.00;99.90
15386;DHT22;7791;47.246;9.648;2022-08-19T07:19:32;18.00;99.90
15386;DHT22;7791;47.246;9.648;2022-08-19T07:21:58;18.00;99.90
15386;DHT22;7791;47.246;9.648;2022-08-19T07:24:26;18.00;99.90
15386;DHT22;7791;47.246;9.648;2022-08-19T07:26:53;17.90;99.90
15386;DHT22;7791;47.246;9.648;2022-08-19T07:29:30;17.80;99.90
15386;DHT22;7791;47.246;9.648;2022-08-19T07:31:57;17.80;99.90
15386;DHT22;7791;47.246;9.648;2022-08-19T07:34:23;17.70;99.90
15386;DHT22;7791;47.246;9.648;2022-08-19T07:36:49;17.60;99.90
15386;DHT22;7791;47.246;9.648;2022-08-19T07:39:18;17.60;99.90
15386;DHT22;7791;47.246;9.648;2022-08-19T07:41:46;17.60;99.90
15386;DHT22;7791;47.246;9.648;2022-08-19T07:44:14;17.70;99.90
15386;DHT22;7791;47.246;9.648;2022-08-19T07:46:42;17.70;99.90
15386;DHT22;7791;47.246;9.648;2022-08-19T07:49:08;17.80;99.90
15386;DHT22;7791;47.246;9.648;2022-08-19T07:51:34;17.80;99.90
15386;DHT22;7791;47.246;9.648;2022-08-19T07:54:00;17.80;99.90
15386;DHT22;7791;47.246;9.648;2022-08-19T07:56:26;18.10;99.90
15386;DHT22;7791;47.246;9.648;2022-08-19T07:59:14;18.30;99.90
15386;DHT22;7791;47.246;9.648;2022-08-19T08:01:40;18.40;99.90
15386;DHT22;7791;47.246;9.648;2022-08-19T08:04:07;18.40;99.90
15386;DHT22;7791;47.246;9.648;2022-08-19T08:06:33;18.50;99.90
15386;DHT22;7791;47.246;9.648;2022-08-19T08:08:59;18.50;99.90
15386;DHT22;7791;47.246;9.648;2022-08-19T08:11:25;18.60;99.90
15386;DHT22;7791;47.246;9.648;2022-08-19T08:13:51;18.50;99.90
15386;DHT22;7791;47.246;9.648;2022-08-19T08:16:18;18.50;99.90
15386;DHT22;7791;47.246;9.648;2022-08-19T08:18:43;18.50;99.90
15386;DHT22;7791;47.246;9.648;2022-08-19T08:21:09;18.50;99.90
15386;DHT22;7791;47.246;9.648;2022-08-19T08:23:35;18.30;99.90
15386;DHT22;7791;47.246;9.648;2022-08-19T08:26:01;18.40;99.90
15386;DHT22;7791;47.246;9.648;2022-08-19T08:28:27;18.60;99.90
15386;DHT22;7791;47.246;9.648;2022-08-19T08:30:53;18.70;99.90
15386;DHT22;7791;47.246;9.648;2022-08-19T08:33:21;18.80;99.90
15386;DHT22;7791;47.246;9.648;2022-08-19T08:35:48;19.00;99.90
15386;DHT22;7791;47.246;9.648;2022-08-19T08:38:14;18.90;99.90
15386;DHT22;7791;47.246;9.648;2022-08-19T08:40:44;18.90;99.90
15386;DHT22;7791;47.246;9.648;2022-08-19T08:43:18;19.00;99.90
15386;DHT22;7791;47.246;9.648;2022-08-19T08:48:51;18.60;99.90
15386;DHT22;7791;47.246;9.648;2022-08-19T08:51:23;18.70;99.90
15386;DHT22;7791;47.246;9.648;2022-08-19T08:53:51;18.50;99.90
15386;DHT22;7791;47.246;9.648;2022-08-19T08:56:17;18.40;99.90
15386;DHT22;7791;47.246;9.648;2022-08-19T08:58:50;18.20;99.90
15386;DHT22;7791;47.246;9.648;2022-08-19T09:01:17;18.20;99.90
15386;DHT22;7791;47.246;9.648;2022-08-19T09:03:43;18.20;99.90
15386;DHT22;7791;47.246;9.648;2022-08-19T09:06:14;18.20;99.90
15386;DHT22;7791;47.246;9.648;2022-08-19T09:08:49;18.20;99.90
15386;DHT22;7791;47.246;9.648;2022-08-19T09:11:24;18.00;99.90
15386;DHT22;7791;47.246;9.648;2022-08-19T09:14:05;17.90;99.90
15386;DHT22;7791;47.246;9.648;2022-08-19T09:17:12;17.90;99.90
15386;DHT22;7791;47.246;9.648;2022-08-19T09:19:49;17.80;99.90
15386;DHT22;7791;47.246;9.648;2022-08-19T09:22:17;17.80;99.90
15386;DHT22;7791;47.246;9.648;2022-08-19T09:24:42;17.70;99.90
15386;DHT22;7791;47.246;9.648;2022-08-19T09:27:08;17.70;99.90
15386;DHT22;7791;47.246;9.648;2022-08-19T09:29:34;17.90;99.90
15386;DHT22;7791;47.246;9.648;2022-08-19T09:32:18;17.90;99.90
15386;DHT22;7791;47.246;9.648;2022-08-19T09:34:43;18.00;99.90
15386;DHT22;7791;47.246;9.648;2022-08-19T09:37:09;17.80;99.90
15386;DHT22;7791;47.246;9.648;2022-08-19T09:39:37;17.60;99.90
15386;DHT22;7791;47.246;9.648;2022-08-19T09:42:03;17.40;99.90
15386;DHT22;7791;47.246;9.648;2022-08-19T09:44:30;17.30;99.90
15386;DHT22;7791;47.246;9.648;2022-08-19T09:46:56;17.40;99.90
15386;DHT22;7791;47.246;9.648;2022-08-19T09:49:22;17.30;99.90
15386;DHT22;7791;47.246;9.648;2022-08-19T09:51:50;17.20;99.90
15386;DHT22;7791;47.246;9.648;2022-08-19T09:54:15;17.20;99.90
15386;DHT22;7791;47.246;9.648;2022-08-19T09:56:43;17.20;99.90
15386;DHT22;7791;47.246;9.648;2022-08-19T09:59:08;17.10;99.90
15386;DHT22;7791;47.246;9.648;2022-08-19T10:01:34;17.20;99.90
15386;DHT22;7791;47.246;9.648;2022-08-19T10:04:00;17.10;99.90
15386;DHT22;7791;47.246;9.648;2022-08-19T10:06:28;17.10;99.90
15386;DHT22;7791;47.246;9.648;2022-08-19T10:08:54;17.00;99.90
15386;DHT22;7791;47.246;9.648;2022-08-19T10:11:20;17.20;99.90
15386;DHT22;7791;47.246;9.648;2022-08-19T10:13:48;17.40;99.90
15386;DHT22;7791;47.246;9.648;2022-08-19T10:16:15;17.40;99.90
15386;DHT22;7791;47.246;9.648;2022-08-19T10:18:42;17.30;99.90
15386;DHT22;7791;47.246;9.648;2022-08-19T10:21:09;17.10;99.90
15386;DHT22;7791;47.246;9.648;2022-08-19T10:23:36;17.30;99.90
15386;DHT22;7791;47.246;9.648;2022-08-19T10:26:03;17.40;99.90
15386;DHT22;7791;47.246;9.648;2022-08-19T10:28:29;17.50;99.90
15386;DHT22;7791;47.246;9.648;2022-08-19T10:31:05;17.50;99.90
15386;DHT22;7791;47.246;9.648;2022-08-19T10:33:31;17.50;99.90
15386;DHT22;7791;47.246;9.648;2022-08-19T10:35:59;17.50;99.90
15386;DHT22;7791;47.246;9.648;2022-08-19T10:38:25;17.50;99.90
15386;DHT22;7791;47.246;9.648;2022-08-19T10:40:51;17.50;99.90
15386;DHT22;7791;47.246;9.648;2022-08-19T10:43:16;17.60;99.90
15386;DHT22;7791;47.246;9.648;2022-08-19T10:45:42;17.50;99.90
15386;DHT22;7791;47.246;9.648;2022-08-19T10:48:09;17.50;99.90
15386;DHT22;7791;47.246;9.648;2022-08-19T10:50:36;17.70;99.90
15386;DHT22;7791;47.246;9.648;2022-08-19T10:53:04;17.80;99.90
15386;DHT22;7791;47.246;9.648;2022-08-19T10:55:30;17.80;99.90
15386;DHT22;7791;47.246;9.648;2022-08-19T10:57:56;17.90;99.90
15386;DHT22;7791;47.246;9.648;2022-08-19T11:00:23;17.90;99.90
15386;DHT22;7791;47.246;9.648;2022-08-19T11:02:49;17.90;99.90
15386;DHT22;7791;47.246;9.648;2022-08-19T11:05:17;18.00;99.90
15386;DHT22;7791;47.246;9.648;2022-08-19T11:07:43;18.00;99.90
15386;DHT22;7791;47.246;9.648;2022-08-19T11:10:10;18.00;99.90
15386;DHT22;7791;47.246;9.648;2022-08-19T11:12:37;17.90;99.90
15386;DHT22;7791;47.246;9.648;2022-08-19T11:15:03;17.80;99.90
15386;DHT22;7791;47.246;9.648;2022-08-19T11:17:29;17.40;99.90
15386;DHT22;7791;47.246;9.648;2022-08-19T11:19:54;17.40;99.90
15386;DHT22;7791;47.246;9.648;2022-08-19T11:22:21;17.40;99.90
15386;DHT22;7791;47.246;9.648;2022-08-19T11:24:47;17.40;99.90
15386;DHT22;7791;47.246;9.648;2022-08-19T11:27:13;17.30;99.90
15386;DHT22;7791;47.246;9.648;2022-08-19T11:29:39;17.40;99.90
15386;DHT22;7791;47.246;9.648;2022-08-19T11:32:17;17.40;99.90
15386;DHT22;7791;47.246;9.648;2022-08-19T11:34:42;17.60;99.90
15386;DHT22;7791;47.246;9.648;2022-08-19T11:37:08;17.70;99.90
15386;DHT22;7791;47.246;9.648;2022-08-19T11:39:36;17.70;99.90
15386;DHT22;7791;47.246;9.648;2022-08-19T11:42:03;17.50;99.90
15386;DHT22;7791;47.246;9.648;2022-08-19T11:44:30;17.40;99.90
15386;DHT22;7791;47.246;9.648;2022-08-19T11:46:56;17.30;99.90
15386;DHT22;7791;47.246;9.648;2022-08-19T11:49:22;17.10;99.90
15386;DHT22;7791;47.246;9.648;2022-08-19T11:51:48;17.30;99.90
15386;DHT22;7791;47.246;9.648;2022-08-19T11:54:15;17.30;99.90
15386;DHT22;7791;47.246;9.648;2022-08-19T11:56:43;17.20;99.90
15386;DHT22;7791;47.246;9.648;2022-08-19T11:59:09;17.00;99.90
15386;DHT22;7791;47.246;9.648;2022-08-19T12:01:35;17.10;99.90
15386;DHT22;7791;47.246;9.648;2022-08-19T12:04:02;17.00;99.90
15386;DHT22;7791;47.246;9.648;2022-08-19T12:06:30;17.00;99.90
15386;DHT22;7791;47.246;9.648;2022-08-19T12:08:57;17.10;99.90
15386;DHT22;7791;47.246;9.648;2022-08-19T12:11:24;17.20;99.90
15386;DHT22;7791;47.246;9.648;2022-08-19T12:13:51;17.30;99.90
15386;DHT22;7791;47.246;9.648;2022-08-19T12:16:18;17.40;99.90
15386;DHT22;7791;47.246;9.648;2022-08-19T12:18:45;17.40;99.90
15386;DHT22;7791;47.246;9.648;2022-08-19T12:21:11;17.50;99.90
15386;DHT22;7791;47.246;9.648;2022-08-19T12:23:38;17.50;99.90
15386;DHT22;7791;47.246;9.648;2022-08-19T12:26:04;17.40;99.90
15386;DHT22;7791;47.246;9.648;2022-08-19T12:28:30;17.50;99.90
15386;DHT22;7791;47.246;9.648;2022-08-19T12:30:58;17.60;99.90
15386;DHT22;7791;47.246;9.648;2022-08-19T12:33:24;17.70;99.90
15386;DHT22;7791;47.246;9.648;2022-08-19T12:35:50;17.80;99.90
15386;DHT22;7791;47.246;9.648;2022-08-19T12:38:16;17.70;99.90
15386;DHT22;7791;47.246;9.648;2022-08-19T12:40:44;17.40;99.90
15386;DHT22;7791;47.246;9.648;2022-08-19T12:43:10;17.40;99.90
15386;DHT22;7791;47.246;9.648;2022-08-19T12:45:36;17.50;99.90
15386;DHT22;7791;47.246;9.648;2022-08-19T12:48:04;17.70;99.90
15386;DHT22;7791;47.246;9.648;2022-08-19T12:50:30;17.80;99.90
15386;DHT22;7791;47.246;9.648;2022-08-19T12:52:57;17.80;99.90
15386;DHT22;7791;47.246;9.648;2022-08-19T12:55:23;17.90;99.90
15386;DHT22;7791;47.246;9.648;2022-08-19T12:57:50;17.90;99.90
15386;DHT22;7791;47.246;9.648;2022-08-19T13:00:18;17.70;99.90
15386;DHT22;7791;47.246;9.648;2022-08-19T13:02:46;17.60;99.90
15386;DHT22;7791;47.246;9.648;2022-08-19T13:05:15;17.30;99.90
15386;DHT22;7791;47.246;9.648;2022-08-19T13:07:42;17.30;99.90
15386;DHT22;7791;47.246;9.648;2022-08-19T13:10:10;17.20;99.90
15386;DHT22;7791;47.246;9.648;2022-08-19T13:12:36;17.20;99.90
15386;DHT22;7791;47.246;9.648;2022-08-19T13:15:02;17.30;99.90
15386;DHT22;7791;47.246;9.648;2022-08-19T13:17:30;17.30;99.90
15386;DHT22;7791;47.246;9.648;2022-08-19T13:19:55;17.30;99.90
15386;DHT22;7791;47.246;9.648;2022-08-19T13:22:23;17.40;99.90
15386;DHT22;7791;47.246;9.648;2022-08-19T13:24:48;17.50;99.90
15386;DHT22;7791;47.246;9.648;2022-08-19T13:27:14;17.40;99.90
15386;DHT22;7791;47.246;9.648;2022-08-19T13:29:40;17.60;99.90
15386;DHT22;7791;47.246;9.648;2022-08-19T13:32:06;17.70;99.90
15386;DHT22;7791;47.246;9.648;2022-08-19T13:34:33;17.60;99.90
15386;DHT22;7791;47.246;9.648;2022-08-19T13:36:59;17.50;99.90
15386;DHT22;7791;47.246;9.648;2022-08-19T13:39:27;17.50;99.90
15386;DHT22;7791;47.246;9.648;2022-08-19T13:41:52;17.60;99.90
15386;DHT22;7791;47.246;9.648;2022-08-19T13:44:18;17.50;99.90
15386;DHT22;7791;47.246;9.648;2022-08-19T13:46:45;17.50;99.90
15386;DHT22;7791;47.246;9.648;2022-08-19T13:49:11;17.40;99.90
15386;DHT22;7791;47.246;9.648;2022-08-19T13:51:37;17.30;99.90
15386;DHT22;7791;47.246;9.648;2022-08-19T13:54:03;17.10;99.90
15386;DHT22;7791;47.246;9.648;2022-08-19T13:56:30;17.10;99.90
15386;DHT22;7791;47.246;9.648;2022-08-19T13:58:56;17.20;99.90
15386;DHT22;7791;47.246;9.648;2022-08-19T14:01:22;17.50;99.90
15386;DHT22;7791;47.246;9.648;2022-08-19T14:03:48;17.70;99.90
15386;DHT22;7791;47.246;9.648;2022-08-19T14:06:14;17.80;99.90
15386;DHT22;7791;47.246;9.648;2022-08-19T14:08:40;17.90;99.90
15386;DHT22;7791;47.246;9.648;2022-08-19T14:11:05;17.90;99.90
15386;DHT22;7791;47.246;9.648;2022-08-19T14:13:33;17.90;99.90
15386;DHT22;7791;47.246;9.648;2022-08-19T14:15:58;17.90;99.90
15386;DHT22;7791;47.246;9.648;2022-08-19T14:18:25;17.80;99.90
15386;DHT22;7791;47.246;9.648;2022-08-19T14:20:51;17.80;99.90
15386;DHT22;7791;47.246;9.648;2022-08-19T14:23:18;17.90;99.90
15386;DHT22;7791;47.246;9.648;2022-08-19T14:25:44;17.90;99.90
15386;DHT22;7791;47.246;9.648;2022-08-19T14:28:10;17.90;99.90
15386;DHT22;7791;47.246;9.648;2022-08-19T14:30:37;17.80;99.90
15386;DHT22;7791;47.246;9.648;2022-08-19T14:33:04;17.70;99.90
15386;DHT22;7791;47.246;9.648;2022-08-19T14:35:32;17.60;99.90
15386;DHT22;7791;47.246;9.648;2022-08-19T14:37:58;17.50;99.90
15386;DHT22;7791;47.246;9.648;2022-08-19T14:40:26;17.50;99.90
15386;DHT22;7791;47.246;9.648;2022-08-19T14:42:53;17.30;99.90
15386;DHT22;7791;47.246;9.648;2022-08-19T14:45:19;17.10;99.90
15386;DHT22;7791;47.246;9.648;2022-08-19T14:47:46;17.00;99.90
15386;DHT22;7791;47.246;9.648;2022-08-19T14:50:12;16.90;99.90
15386;DHT22;7791;47.246;9.648;2022-08-19T14:52:37;16.90;99.90
15386;DHT22;7791;47.246;9.648;2022-08-19T14:55:04;16.90;99.90
15386;DHT22;7791;47.246;9.648;2022-08-19T14:57:30;17.10;99.90
15386;DHT22;7791;47.246;9.648;2022-08-19T14:59:56;17.20;99.90
15386;DHT22;7791;47.246;9.648;2022-08-19T15:02:21;17.20;99.90
15386;DHT22;7791;47.246;9.648;2022-08-19T15:04:49;17.20;99.90
15386;DHT22;7791;47.246;9.648;2022-08-19T15:07:14;17.20;99.90
15386;DHT22;7791;47.246;9.648;2022-08-19T15:09:40;17.00;99.90
15386;DHT22;7791;47.246;9.648;2022-08-19T15:12:07;17.00;99.90
15386;DHT22;7791;47.246;9.648;2022-08-19T15:14:36;17.10;99.90
15386;DHT22;7791;47.246;9.648;2022-08-19T15:17:02;17.10;99.90
15386;DHT22;7791;47.246;9.648;2022-08-19T15:19:29;17.20;99.90
15386;DHT22;7791;47.246;9.648;2022-08-19T15:21:56;17.30;99.90
15386;DHT22;7791;47.246;9.648;2022-08-19T15:24:22;17.50;99.90
15386;DHT22;7791;47.246;9.648;2022-08-19T15:26:47;17.60;99.90
15386;DHT22;7791;47.246;9.648;2022-08-19T15:29:13;17.60;99.90
15386;DHT22;7791;47.246;9.648;2022-08-19T15:31:39;17.70;99.90
15386;DHT22;7791;47.246;9.648;2022-08-19T15:34:05;17.70;99.90
15386;DHT22;7791;47.246;9.648;2022-08-19T15:36:31;17.40;99.90
15386;DHT22;7791;47.246;9.648;2022-08-19T15:38:58;17.30;99.90
15386;DHT22;7791;47.246;9.648;2022-08-19T15:41:27;17.30;99.90
15386;DHT22;7791;47.246;9.648;2022-08-19T15:43:55;17.40;99.90
15386;DHT22;7791;47.246;9.648;2022-08-19T15:46:23;17.50;99.90
15386;DHT22;7791;47.246;9.648;2022-08-19T15:48:49;17.40;99.90
15386;DHT22;7791;47.246;9.648;2022-08-19T15:51:16;17.10;99.90
15386;DHT22;7791;47.246;9.648;2022-08-19T15:53:42;17.10;99.90
15386;DHT22;7791;47.246;9.648;2022-08-19T15:56:10;17.20;99.90
15386;DHT22;7791;47.246;9.648;2022-08-19T15:58:36;17.30;99.90